Time;durP1;ratioP1;P1;durP2;ratioP2;P2;SDS_P1;SDS_P2;PMS_P1;PMS_P2;Temp;Humidity;BMP_temperature;BMP_pressure;BME280_temperature;BME280_humidity;BME280_pressure;Samples;Min_cycle;Max_cycle;Signal;HPM_P1;HPM_P2
2023/08/18 00:02:20;;;;;;;5.72;3.80;;;20.20;99.90;;;;;;5111839;28;20024;-59
2023/08/18 00:04:46;;;;;;;4.40;3.90;;;20.20;99.90;;;;;;5092186;28;20028;-59
2023/08/18 00:07:12;;;;;;;6.38;4.32;;;20.10;99.90;;;;;;5111029;28;20503;-60
2023/08/18 00:09:37;;;;;;;5.90;4.30;;;20.20;99.90;;;;;;5091811;28;20571;-60
2023/08/18 00:12:05;;;;;;;6.40;4.13;;;20.10;99.90;;;;;;5110696;28;20031;-59
2023/08/18 00:14:30;;;;;;;9.68;5.22;;;20.20;99.90;;;;;;5092913;28;20511;-60
2023/08/18 00:16:56;;;;;;;6.40;4.30;;;20.10;99.90;;;;;;5091478;28;20043;-60
2023/08/18 00:19:21;;;;;;;5.72;4.50;;;20.10;99.90;;;;;;5109289;28;20031;-59
2023/08/18 00:21:47;;;;;;;7.28;4.90;;;20.10;99.90;;;;;;5091459;28;20044;-59
2023/08/18 00:24:12;;;;;;;8.23;4.47;;;20.10;99.90;;;;;;5110883;28;20628;-50
2023/08/18 00:26:38;;;;;;;5.85;4.50;;;20.10;99.90;;;;;;5091267;28;20066;-54
2023/08/18 00:29:04;;;;;;;5.43;4.85;;;20.10;99.90;;;;;;5110724;28;20030;-49
2023/08/18 00:31:29;;;;;;;5.43;4.53;;;20.10;99.90;;;;;;5109263;28;20506;-50
2023/08/18 00:33:55;;;;;;;6.75;4.93;;;20.10;99.90;;;;;;5091287;28;20511;-49
2023/08/18 00:36:20;;;;;;;6.80;4.72;;;20.10;99.90;;;;;;5110330;28;20028;-51
2023/08/18 00:38:46;;;;;;;10.38;5.45;;;20.00;99.90;;;;;;5091191;28;20123;-52
2023/08/18 00:41:11;;;;;;;4.75;4.28;;;20.00;99.90;;;;;;5110302;28;20047;-50
2023/08/18 00:43:37;;;;;;;6.03;4.82;;;20.00;99.90;;;;;;5091143;28;20122;-53
2023/08/18 00:46:02;;;;;;;8.48;5.20;;;20.00;99.90;;;;;;5110082;28;20030;-51
2023/08/18 00:48:28;;;;;;;7.68;5.57;;;20.00;99.90;;;;;;5090906;28;20045;-51
2023/08/18 00:50:54;;;;;;;5.70;5.10;;;20.00;99.90;;;;;;5108767;28;20028;-50
2023/08/18 00:53:19;;;;;;;5.93;5.07;;;19.90;99.90;;;;;;5090872;28;20032;-50
2023/08/18 00:55:47;;;;;;;7.57;5.35;;;19.90;99.90;;;;;;5109884;28;20042;-52
2023/08/18 00:58:13;;;;;;;6.50;5.03;;;19.90;99.90;;;;;;5090370;28;20051;-49
2023/08/18 01:00:39;;;;;;;5.07;4.57;;;19.90;99.90;;;;;;5095279;28;20427;-51
2023/08/18 01:03:06;;;;;;;4.50;4.10;;;19.80;99.90;;;;;;5109119;28;20299;-52
2023/08/18 01:05:31;;;;;;;6.50;4.10;;;19.80;99.90;;;;;;5090434;28;20028;-54
2023/08/18 01:07:57;;;;;;;5.10;4.35;;;19.80;99.90;;;;;;5108435;28;20108;-55
2023/08/18 01:10:24;;;;;;;5.40;4.20;;;19.80;99.90;;;;;;5090355;28;20090;-52
2023/08/18 01:13:07;;;;;;;7.25;4.85;;;19.80;99.90;;;;;;5109748;28;20085;-53
2023/08/18 01:15:40;;;;;;;5.00;4.43;;;19.70;99.90;;;;;;5066065;28;20028;-52
2023/08/18 01:18:06;;;;;;;6.78;4.63;;;19.70;99.90;;;;;;5068551;28;20506;-51
2023/08/18 01:20:32;;;;;;;6.50;4.57;;;19.60;99.90;;;;;;5108825;28;20038;-52
2023/08/18 01:22:59;;;;;;;6.28;5.15;;;19.60;99.90;;;;;;5090155;28;20549;-50
2023/08/18 01:25:25;;;;;;;8.60;5.03;;;19.60;99.90;;;;;;5109733;28;20120;-52
2023/08/18 01:27:51;;;;;;;9.23;5.10;;;19.50;99.90;;;;;;5090208;28;20051;-54
2023/08/18 01:30:17;;;;;;;5.43;4.93;;;19.50;99.90;;;;;;5107283;28;20062;-53
2023/08/18 01:32:56;;;;;;;6.70;5.03;;;19.40;99.90;;;;;;5090070;28;20040;-48
2023/08/18 01:35:26;;;;;;;9.80;5.75;;;19.40;99.90;;;;;;5069446;28;20052;-48
2023/08/18 01:37:54;;;;;;;6.07;5.43;;;19.40;99.90;;;;;;5109913;28;20260;-52
2023/08/18 01:40:23;;;;;;;7.30;5.80;;;19.40;99.90;;;;;;5089783;28;20358;-50
2023/08/18 01:42:51;;;;;;;7.82;5.85;;;19.30;99.90;;;;;;5109866;28;20019;-54
2023/08/18 01:45:16;;;;;;;9.68;5.28;;;19.30;99.90;;;;;;5089743;28;20107;-52
2023/08/18 01:47:42;;;;;;;6.45;5.55;;;19.30;99.90;;;;;;5109040;28;20110;-52
2023/08/18 01:50:08;;;;;;;7.55;6.15;;;19.20;99.90;;;;;;5089935;28;20027;-52
2023/08/18 01:52:34;;;;;;;9.95;5.70;;;19.20;99.90;;;;;;5109000;28;20032;-52
2023/08/18 01:54:59;;;;;;;6.90;6.20;;;19.20;99.90;;;;;;5090017;28;20403;-56
2023/08/18 01:57:24;;;;;;;7.85;5.57;;;19.20;99.90;;;;;;5108967;28;20024;-50
2023/08/18 01:59:50;;;;;;;6.25;5.50;;;19.20;99.90;;;;;;5093842;28;20028;-52
2023/08/18 02:02:15;;;;;;;9.40;6.43;;;19.20;99.90;;;;;;5109670;28;20027;-50
2023/08/18 02:04:41;;;;;;;9.38;5.63;;;19.10;99.90;;;;;;5089556;28;20032;-52
2023/08/18 02:10:28;;;;;;;7.95;6.57;;;19.10;99.90;;;;;;5068872;28;20105;-53
2023/08/18 02:12:54;;;;;;;7.55;6.50;;;19.00;99.90;;;;;;5108181;28;20106;-49
2023/08/18 02:15:19;;;;;;;9.95;6.80;;;19.00;99.90;;;;;;5082625;28;20024;-51
2023/08/18 02:17:44;;;;;;;9.05;6.57;;;19.00;99.90;;;;;;5108866;28;20077;-53
2023/08/18 02:20:10;;;;;;;11.02;6.97;;;19.00;99.90;;;;;;5089375;28;20492;-54
2023/08/18 02:22:36;;;;;;;11.25;6.72;;;18.90;99.90;;;;;;5108499;28;20035;-53
2023/08/18 02:25:01;;;;;;;10.18;6.72;;;18.90;99.90;;;;;;5089390;28;20163;-50
2023/08/18 02:27:27;;;;;;;9.13;7.25;;;18.90;99.90;;;;;;5108437;28;20059;-54
2023/08/18 02:29:53;;;;;;;9.73;6.72;;;18.90;99.90;;;;;;5093481;28;20023;-56
2023/08/18 02:32:18;;;;;;;8.05;6.88;;;18.90;99.90;;;;;;5109245;28;20062;-53
2023/08/18 02:34:45;;;;;;;9.15;6.82;;;18.80;99.90;;;;;;5089338;28;20468;-53
2023/08/18 02:37:11;;;;;;;9.15;6.53;;;18.80;99.90;;;;;;5108866;28;20379;-55
2023/08/18 02:39:37;;;;;;;9.23;7.65;;;18.80;99.90;;;;;;5089318;28;20495;-53
2023/08/18 02:42:03;;;;;;;9.63;7.35;;;18.70;99.90;;;;;;5108165;28;20040;-54
2023/08/18 02:44:28;;;;;;;10.35;7.25;;;18.80;99.90;;;;;;5089043;28;20032;-55
2023/08/18 02:46:54;;;;;;;12.02;7.18;;;18.80;99.90;;;;;;5108308;28;20526;-53
2023/08/18 02:49:19;;;;;;;9.82;7.20;;;18.70;99.90;;;;;;5089203;28;20035;-54
2023/08/18 02:51:44;;;;;;;8.57;7.35;;;18.70;99.90;;;;;;5108315;28;20099;-52
2023/08/18 02:54:10;;;;;;;8.93;7.65;;;18.70;99.90;;;;;;5089195;28;20382;-53
2023/08/18 02:56:37;;;;;;;9.77;7.35;;;18.70;99.90;;;;;;5108260;28;20338;-54
2023/08/18 02:59:02;;;;;;;10.23;7.82;;;18.70;99.90;;;;;;5089294;28;20031;-52
2023/08/18 03:01:28;;;;;;;11.75;7.43;;;18.70;99.90;;;;;;5086622;28;20040;-53
2023/08/18 03:03:53;;;;;;;8.73;7.10;;;18.70;99.90;;;;;;5108234;28;20114;-52
2023/08/18 03:06:18;;;;;;;10.00;7.22;;;18.70;99.90;;;;;;5088957;28;20415;-53
2023/08/18 03:08:44;;;;;;;8.07;6.95;;;18.60;99.90;;;;;;5108049;28;20032;-53
2023/08/18 03:11:09;;;;;;;8.40;7.28;;;18.60;99.90;;;;;;5089068;28;20168;-50
2023/08/18 03:13:35;;;;;;;9.55;6.15;;;18.60;99.90;;;;;;5107036;28;20102;-53
2023/08/18 03:16:00;;;;;;;10.88;6.80;;;18.60;99.90;;;;;;5081959;28;20025;-50
2023/08/18 03:18:26;;;;;;;11.45;6.90;;;18.60;99.90;;;;;;5107931;28;20031;-53
2023/08/18 03:20:59;;;;;;;13.82;7.88;;;18.60;99.90;;;;;;5088758;28;20032;-49
2023/08/18 03:23:25;;;;;;;9.15;7.57;;;18.60;99.90;;;;;;5068256;28;20027;-54
2023/08/18 03:25:50;;;;;;;11.75;7.95;;;18.60;99.90;;;;;;5107404;28;20110;-54
2023/08/18 03:28:16;;;;;;;10.73;8.02;;;18.60;99.90;;;;;;5092359;28;20039;-52
2023/08/18 03:30:41;;;;;;;9.70;7.65;;;18.60;99.90;;;;;;5103913;28;20572;-50
2023/08/18 03:33:08;;;;;;;13.50;9.10;;;18.60;99.90;;;;;;5111112;28;20073;-55
2023/08/18 03:35:35;;;;;;;8.80;7.90;;;18.60;99.90;;;;;;5092307;28;20028;-54
2023/08/18 03:38:04;;;;;;;11.45;7.18;;;18.70;99.90;;;;;;5111870;28;20031;-54
2023/08/18 03:40:30;;;;;;;9.13;6.75;;;18.60;99.90;;;;;;5092351;28;20040;-54
2023/08/18 03:42:56;;;;;;;8.27;6.80;;;18.60;99.90;;;;;;5111607;28;20027;-54
2023/08/18 03:45:21;;;;;;;10.82;7.78;;;18.70;99.90;;;;;;5092394;28;20078;-50
2023/08/18 03:47:47;;;;;;;9.02;8.05;;;18.70;99.90;;;;;;5111421;28;20031;-51
2023/08/18 03:50:13;;;;;;;9.32;7.57;;;18.70;99.90;;;;;;5091008;28;20447;-52
2023/08/18 03:52:39;;;;;;;8.50;7.47;;;18.70;99.90;;;;;;5111337;28;20032;-54
2023/08/18 03:55:04;;;;;;;9.15;7.53;;;18.70;99.90;;;;;;5092017;28;20055;-53
2023/08/18 03:57:30;;;;;;;8.93;7.70;;;18.80;99.90;;;;;;5111350;28;20441;-54
2023/08/18 03:59:55;;;;;;;12.40;7.50;;;18.80;99.90;;;;;;5095236;28;20035;-50
2023/08/18 04:02:22;;;;;;;8.90;6.70;;;18.80;99.90;;;;;;5111643;28;20034;-54
2023/08/18 04:04:48;;;;;;;8.77;7.10;;;18.80;99.90;;;;;;5091652;28;20032;-50
2023/08/18 04:07:13;;;;;;;10.65;7.57;;;18.80;99.90;;;;;;5111086;28;20036;-55
2023/08/18 04:09:39;;;;;;;7.28;6.45;;;18.90;99.90;;;;;;5091692;28;20039;-54
2023/08/18 04:12:05;;;;;;;9.43;6.60;;;18.90;99.90;;;;;;5110794;28;20038;-53
2023/08/18 04:14:30;;;;;;;10.38;7.38;;;18.90;99.90;;;;;;5096475;28;20160;-59
2023/08/18 04:16:56;;;;;;;8.30;7.30;;;18.90;99.90;;;;;;5091650;28;20396;-59
2023/08/18 04:19:21;;;;;;;8.35;7.07;;;19.00;99.90;;;;;;5110891;28;20055;-58
2023/08/18 04:21:47;;;;;;;8.23;6.30;;;19.00;99.90;;;;;;5091301;28;20500;-59
2023/08/18 04:24:13;;;;;;;6.85;5.97;;;19.00;99.90;;;;;;5110651;28;20063;-54
2023/08/18 04:26:39;;;;;;;8.43;6.90;;;19.10;99.90;;;;;;5091223;28;20043;-52
2023/08/18 04:29:05;;;;;;;7.43;5.22;;;19.10;99.90;;;;;;5110780;28;20032;-52
2023/08/18 04:31:30;;;;;;;7.55;6.13;;;19.10;99.90;;;;;;5109273;28;20047;-55
2023/08/18 04:33:56;;;;;;;7.65;6.35;;;19.10;99.90;;;;;;5091505;28;20059;-48
2023/08/18 04:36:21;;;;;;;7.63;6.55;;;19.20;99.90;;;;;;5110442;28;20466;-52
2023/08/18 04:38:47;;;;;;;8.95;6.40;;;19.20;99.90;;;;;;5089925;28;20055;-53
2023/08/18 04:41:12;;;;;;;11.70;7.53;;;19.20;99.90;;;;;;5110196;28;20458;-53
2023/08/18 04:43:38;;;;;;;7.53;6.72;;;19.20;99.90;;;;;;5091069;28;20036;-51
2023/08/18 04:46:03;;;;;;;10.05;7.20;;;19.30;99.90;;;;;;5110112;28;20556;-52
2023/08/18 04:48:29;;;;;;;11.20;8.77;;;19.30;99.90;;;;;;5090945;28;20492;-52
2023/08/18 04:50:54;;;;;;;9.93;8.45;;;19.30;99.90;;;;;;5110126;28;20027;-53
2023/08/18 04:53:20;;;;;;;14.40;9.15;;;19.30;99.90;;;;;;5090873;28;20424;-53
2023/08/18 04:55:45;;;;;;;8.43;7.07;;;19.40;99.90;;;;;;5109928;28;20506;-54
2023/08/18 04:58:15;;;;;;;7.68;6.97;;;19.40;99.90;;;;;;5090790;28;20105;-54
2023/08/18 05:00:41;;;;;;;8.95;7.70;;;19.50;99.90;;;;;;5095482;28;20407;-49
2023/08/18 05:03:07;;;;;;;9.90;8.00;;;19.60;99.90;;;;;;5109936;28;20039;-52
2023/08/18 05:05:34;;;;;;;8.20;6.97;;;19.60;99.90;;;;;;5090627;28;20032;-53
2023/08/18 05:08:00;;;;;;;7.93;7.13;;;19.70;99.90;;;;;;5110047;28;20024;-54
2023/08/18 05:10:25;;;;;;;11.95;7.82;;;19.80;99.90;;;;;;5090522;28;20515;-54
2023/08/18 05:12:51;;;;;;;10.57;7.68;;;19.80;99.90;;;;;;5109874;28;20493;-53
2023/08/18 05:15:16;;;;;;;9.15;8.18;;;19.90;99.90;;;;;;5087062;28;20036;-54
2023/08/18 05:17:42;;;;;;;7.80;6.75;;;19.90;99.90;;;;;;5109552;28;20514;-51
2023/08/18 05:20:08;;;;;;;9.52;7.57;;;20.00;99.90;;;;;;5090609;28;20035;-59
2023/08/18 05:22:34;;;;;;;8.95;8.05;;;20.00;99.90;;;;;;5109454;28;20035;-59
2023/08/18 05:24:59;;;;;;;8.15;6.95;;;20.10;99.90;;;;;;5090322;28;20396;-59
2023/08/18 05:27:26;;;;;;;7.25;6.45;;;20.40;99.90;;;;;;5109292;28;20220;-58
2023/08/18 05:29:51;;;;;;;14.90;8.90;;;20.70;99.90;;;;;;5092552;28;20031;-59
2023/08/18 05:32:17;;;;;;;8.57;7.15;;;21.00;99.90;;;;;;5108740;28;20036;-59
2023/08/18 05:34:42;;;;;;;7.65;6.82;;;21.50;99.90;;;;;;5090295;28;20078;-59
2023/08/18 05:37:07;;;;;;;10.82;6.57;;;22.40;99.90;;;;;;5109128;28;20145;-59
2023/08/18 05:39:33;;;;;;;8.13;6.20;;;23.10;99.90;;;;;;5088608;28;20126;-59
2023/08/18 05:45:20;;;;;;;9.25;5.82;;;23.80;96.70;;;;;;5069420;28;20085;-58
2023/08/18 05:47:46;;;;;;;6.82;5.20;;;24.50;94.50;;;;;;5108685;28;20071;-59
2023/08/18 05:50:11;;;;;;;10.73;6.45;;;25.40;94.70;;;;;;5089558;28;20257;-59
2023/08/18 05:52:37;;;;;;;6.95;6.25;;;25.70;86.60;;;;;;5108919;28;20039;-59
2023/08/18 05:55:04;;;;;;;7.28;5.88;;;25.80;85.80;;;;;;5089778;28;20445;-59
2023/08/18 05:57:30;;;;;;;6.90;5.43;;;26.10;90.40;;;;;;5109007;28;20114;-59
2023/08/18 05:59:55;;;;;;;7.63;5.68;;;26.60;80.50;;;;;;5094388;28;20115;-59
2023/08/18 06:02:21;;;;;;;6.47;5.72;;;27.30;80.40;;;;;;5107404;28;20035;-60
2023/08/18 06:04:46;;;;;;;6.10;5.50;;;27.50;83.30;;;;;;5109710;28;20023;-60
2023/08/18 06:07:12;;;;;;;7.80;5.47;;;28.00;73.00;;;;;;5089416;28;20036;-60
2023/08/18 06:09:37;;;;;;;6.10;5.30;;;27.80;75.60;;;;;;5108622;28;20494;-59
2023/08/18 06:12:03;;;;;;;8.52;5.60;;;28.30;78.00;;;;;;5089666;28;20115;-60
2023/08/18 06:14:28;;;;;;;5.10;4.65;;;28.90;68.00;;;;;;5094062;28;20028;-59
2023/08/18 06:16:54;;;;;;;5.35;4.85;;;29.20;73.70;;;;;;5108749;28;20032;-60
2023/08/18 06:19:19;;;;;;;8.15;5.22;;;30.00;70.60;;;;;;5089557;28;20066;-57
2023/08/18 06:21:45;;;;;;;10.38;5.60;;;30.30;66.70;;;;;;5108359;28;20039;-58
2023/08/18 06:24:10;;;;;;;7.72;5.00;;;30.30;59.70;;;;;;5089708;28;20520;-59
2023/08/18 06:26:36;;;;;;;5.10;4.60;;;30.40;62.20;;;;;;5108462;28;20084;-58
2023/08/18 06:29:01;;;;;;;6.35;4.70;;;30.90;64.90;;;;;;5089366;28;20039;-59
2023/08/18 06:31:26;;;;;;;4.75;3.70;;;31.40;60.60;;;;;;5108330;28;20591;-58
2023/08/18 06:33:52;;;;;;;4.60;4.05;;;31.90;61.80;;;;;;5087516;28;20027;-58
2023/08/18 06:36:17;;;;;;;7.03;4.20;;;32.70;59.70;;;;;;5108381;28;20039;-58
2023/08/18 06:38:43;;;;;;;4.18;3.78;;;32.60;54.00;;;;;;5089218;28;20031;-58
2023/08/18 06:41:09;;;;;;;5.85;4.07;;;32.90;57.20;;;;;;5108295;28;20396;-60
2023/08/18 06:43:34;;;;;;;5.25;4.00;;;33.10;55.20;;;;;;5089103;28;20495;-59
2023/08/18 06:46:00;;;;;;;4.13;3.72;;;33.30;49.80;;;;;;5108329;28;20024;-59
2023/08/18 06:48:26;;;;;;;4.20;3.78;;;33.40;53.00;;;;;;5089045;28;20468;-59
2023/08/18 06:50:51;;;;;;;3.67;3.38;;;33.90;50.90;;;;;;5108284;28;20032;-60
2023/08/18 06:53:17;;;;;;;4.85;3.70;;;34.30;50.50;;;;;;5089199;28;20036;-59
2023/08/18 06:55:42;;;;;;;3.67;3.25;;;34.90;48.20;;;;;;5108098;28;20030;-59
2023/08/18 06:58:07;;;;;;;4.43;3.30;;;35.30;46.10;;;;;;5089279;28;20063;-60
2023/08/18 07:00:33;;;;;;;3.40;3.08;;;35.90;44.60;;;;;;5108412;28;20461;-60
2023/08/18 07:02:58;;;;;;;3.60;3.30;;;36.40;42.50;;;;;;5099966;28;20040;-61
2023/08/18 07:05:26;;;;;;;3.83;2.67;;;37.20;40.70;;;;;;5093130;28;20606;-59
2023/08/18 07:07:53;;;;;;;4.68;3.30;;;37.60;37.90;;;;;;5112572;28;20238;-60
2023/08/18 07:10:18;;;;;;;3.65;2.90;;;37.70;33.80;;;;;;5092896;28;20035;-59
2023/08/18 07:12:44;;;;;;;3.22;2.80;;;37.70;34.30;;;;;;5112051;28;20028;-60
2023/08/18 07:15:09;;;;;;;4.38;2.78;;;37.70;32.60;;;;;;5088929;28;20498;-60
2023/08/18 07:17:35;;;;;;;4.38;3.10;;;38.00;31.10;;;;;;5111866;28;20064;-60
2023/08/18 07:20:00;;;;;;;3.25;2.88;;;37.80;30.00;;;;;;5092864;28;20649;-60
2023/08/18 07:22:26;;;;;;;3.30;3.00;;;37.60;29.10;;;;;;5111794;28;20123;-61
2023/08/18 07:24:51;;;;;;;2.78;2.58;;;37.70;28.70;;;;;;5092744;28;20047;-59
2023/08/18 07:27:17;;;;;;;3.03;2.83;;;37.80;27.80;;;;;;5111788;28;20509;-59
2023/08/18 07:29:42;;;;;;;2.50;2.30;;;37.90;26.90;;;;;;5092494;28;20024;-59
2023/08/18 07:32:08;;;;;;;2.80;2.42;;;37.90;25.60;;;;;;5109612;28;20054;-59
2023/08/18 07:34:33;;;;;;;3.60;2.20;;;38.20;25.70;;;;;;5112441;28;20402;-59
2023/08/18 07:36:58;;;;;;;3.08;2.40;;;38.40;24.90;;;;;;5092576;28;20141;-60
2023/08/18 07:39:24;;;;;;;3.28;2.38;;;38.90;24.10;;;;;;5111521;28;20024;-59
2023/08/18 07:41:50;;;;;;;3.65;2.55;;;39.60;23.40;;;;;;5092348;28;20111;-59
2023/08/18 07:44:15;;;;;;;2.80;2.60;;;40.00;21.80;;;;;;5111525;28;20027;-59
2023/08/18 07:46:42;;;;;;;2.85;2.42;;;40.40;20.90;;;;;;5092281;28;20085;-59
2023/08/18 07:49:07;;;;;;;2.65;2.45;;;41.00;20.20;;;;;;5111858;28;20122;-60
2023/08/18 07:51:32;;;;;;;2.78;2.58;;;40.70;19.40;;;;;;5092107;28;20107;-60
2023/08/18 07:53:58;;;;;;;2.50;2.30;;;40.40;18.30;;;;;;5111172;28;20407;-60
2023/08/18 07:56:24;;;;;;;5.53;2.75;;;40.30;18.70;;;;;;5091985;28;20058;-58
2023/08/18 07:58:49;;;;;;;3.47;2.42;;;40.50;18.60;;;;;;5111085;28;20062;-59
2023/08/18 08:01:16;;;;;;;3.03;2.30;;;39.80;18.30;;;;;;5091861;28;20043;-60
2023/08/18 08:03:41;;;;;;;2.50;2.30;;;39.60;18.50;;;;;;5092502;28;20119;-59
2023/08/18 08:06:07;;;;;;;3.83;2.45;;;39.30;18.60;;;;;;5110985;28;20119;-58
2023/08/18 08:08:33;;;;;;;2.80;2.30;;;39.10;18.50;;;;;;5091683;28;20032;-58
2023/08/18 08:10:58;;;;;;;2.80;2.60;;;39.10;18.60;;;;;;5111073;28;20039;-58
2023/08/18 08:13:25;;;;;;;2.70;2.42;;;38.90;18.20;;;;;;5091287;28;20028;-58
2023/08/18 08:15:50;;;;;;;2.95;2.65;;;38.70;18.00;;;;;;5107377;28;20032;-58
2023/08/18 08:18:18;;;;;;;3.78;2.88;;;38.30;18.00;;;;;;5091697;28;20420;-58
2023/08/18 08:20:44;;;;;;;3.25;2.78;;;37.40;18.90;;;;;;5111239;28;20067;-58
2023/08/18 08:23:10;;;;;;;2.80;2.60;;;37.10;19.40;;;;;;5091700;28;20020;-59
2023/08/18 08:25:37;;;;;;;3.25;2.60;;;36.90;19.80;;;;;;5110791;28;20399;-58
2023/08/18 08:28:03;;;;;;;4.13;3.05;;;36.60;20.20;;;;;;5091600;28;20020;-58
2023/08/18 08:30:28;;;;;;;6.15;3.15;;;36.70;20.50;;;;;;5104705;28;20323;-58
2023/08/18 08:32:54;;;;;;;3.10;2.80;;;36.20;20.40;;;;;;5097954;28;20194;-58
2023/08/18 08:35:20;;;;;;;3.78;2.50;;;35.70;21.30;;;;;;5089850;28;20069;-58
2023/08/18 08:37:45;;;;;;;3.35;2.85;;;35.40;21.40;;;;;;5110500;28;20040;-59
2023/08/18 08:40:18;;;;;;;4.20;2.63;;;35.60;21.20;;;;;;5089946;28;20024;-58
2023/08/18 08:42:44;;;;;;;3.28;2.65;;;35.90;20.90;;;;;;5111334;28;20062;-58
2023/08/18 08:45:09;;;;;;;2.72;2.53;;;35.80;21.30;;;;;;5091307;28;20027;-59
2023/08/18 08:47:35;;;;;;;3.15;2.55;;;35.70;21.50;;;;;;5110513;28;20032;-58
2023/08/18 08:50:03;;;;;;;3.13;2.83;;;35.50;20.50;;;;;;5090862;28;20055;-58
2023/08/18 08:52:35;;;;;;;3.25;2.65;;;35.40;21.30;;;;;;5110512;28;20024;-58
2023/08/18 08:55:02;;;;;;;3.65;2.70;;;35.30;20.00;;;;;;5070220;28;20332;-59
2023/08/18 08:57:28;;;;;;;2.95;2.50;;;35.20;20.60;;;;;;5109810;28;20036;-59
2023/08/18 08:59:54;;;;;;;3.92;2.78;;;34.80;21.20;;;;;;5090792;28;20055;-58
2023/08/18 09:02:20;;;;;;;3.38;3.00;;;34.70;20.90;;;;;;5109989;28;20042;-57
2023/08/18 09:04:46;;;;;;;3.40;3.10;;;34.50;21.20;;;;;;5090545;28;20304;-58
2023/08/18 09:07:15;;;;;;;3.22;2.35;;;34.70;21.40;;;;;;5110181;28;20176;-59
2023/08/18 09:09:41;;;;;;;2.90;2.58;;;34.80;21.40;;;;;;5090172;27;20039;-59
2023/08/18 09:12:08;;;;;;;3.10;2.80;;;35.00;21.50;;;;;;5091184;28;20039;-59
2023/08/18 09:14:35;;;;;;;4.28;3.03;;;34.60;22.00;;;;;;5094107;28;20024;-58
2023/08/18 09:17:02;;;;;;;3.28;2.92;;;34.20;22.30;;;;;;5109846;28;20039;-58
2023/08/18 09:19:28;;;;;;;3.00;2.70;;;33.90;21.70;;;;;;5090390;28;20039;-59
2023/08/18 09:21:57;;;;;;;3.53;3.20;;;33.80;22.50;;;;;;5109571;28;20442;-59
2023/08/18 09:24:23;;;;;;;3.45;2.92;;;33.70;22.50;;;;;;5087787;28;20069;-58
2023/08/18 09:26:48;;;;;;;3.40;2.90;;;33.80;22.40;;;;;;5109425;28;20035;-59
2023/08/18 09:29:14;;;;;;;2.67;2.47;;;33.90;22.60;;;;;;5090444;28;20035;-58
2023/08/18 09:31:40;;;;;;;3.40;2.53;;;34.10;22.40;;;;;;5109322;28;20396;-58
2023/08/18 09:34:06;;;;;;;3.38;2.70;;;34.20;22.40;;;;;;5090281;28;20061;-58
2023/08/18 09:36:31;;;;;;;3.60;2.90;;;34.20;22.10;;;;;;5109230;28;20035;-59
2023/08/18 09:38:57;;;;;;;3.20;2.90;;;34.30;22.40;;;;;;5090014;28;20039;-58
2023/08/18 09:41:23;;;;;;;3.63;2.88;;;34.10;22.10;;;;;;5106997;28;20039;-58
2023/08/18 09:43:49;;;;;;;5.22;3.30;;;34.00;22.50;;;;;;5089769;28;20020;-58
2023/08/18 09:46:16;;;;;;;2.88;2.67;;;33.70;23.10;;;;;;5109055;28;20459;-59
2023/08/18 09:48:46;;;;;;;6.05;3.35;;;33.70;23.50;;;;;;5089545;28;20396;-58
2023/08/18 09:51:13;;;;;;;3.28;2.97;;;33.20;23.30;;;;;;5109540;28;20027;-59
2023/08/18 09:53:47;;;;;;;3.40;3.10;;;33.00;23.70;;;;;;5089526;28;20578;-59
2023/08/18 09:56:13;;;;;;;3.33;3.03;;;32.60;23.70;;;;;;5069268;28;20071;-59
2023/08/18 09:58:49;;;;;;;3.35;2.97;;;32.40;22.70;;;;;;5108488;28;20466;-58
2023/08/18 10:01:17;;;;;;;3.05;2.83;;;31.80;24.50;;;;;;5068988;28;20119;-58
2023/08/18 10:03:45;;;;;;;4.05;3.40;;;31.70;24.70;;;;;;5108813;28;20023;-59
2023/08/18 10:06:11;;;;;;;3.17;2.88;;;31.60;24.50;;;;;;5089208;28;20020;-59
2023/08/18 10:08:36;;;;;;;4.80;3.65;;;31.60;24.80;;;;;;5108659;28;20020;-59
2023/08/18 10:11:02;;;;;;;4.13;2.95;;;30.80;25.00;;;;;;5095569;28;20110;-58
2023/08/18 10:13:31;;;;;;;3.83;2.97;;;30.70;25.60;;;;;;5089302;28;20027;-58
2023/08/18 10:15:57;;;;;;;3.22;3.03;;;31.00;25.50;;;;;;5101886;28;20028;-58
2023/08/18 10:18:23;;;;;;;3.13;2.88;;;31.00;25.50;;;;;;5089371;28;20496;-58
2023/08/18 10:20:52;;;;;;;3.88;3.50;;;31.00;26.60;;;;;;5108528;28;20035;-58
2023/08/18 10:23:19;;;;;;;7.07;3.72;;;31.20;26.00;;;;;;5089489;28;20115;-58
2023/08/18 10:25:48;;;;;;;4.30;3.90;;;31.10;25.60;;;;;;5108538;28;20035;-58
2023/08/18 10:28:19;;;;;;;4.68;4.22;;;30.80;26.70;;;;;;5088783;28;20492;-58
2023/08/18 10:30:55;;;;;;;5.25;3.85;;;30.60;28.20;;;;;;5100576;28;20102;-58
2023/08/18 10:33:32;;;;;;;6.50;4.70;;;30.60;28.20;;;;;;5068744;28;20488;-58
2023/08/18 10:35:58;;;;;;;5.05;3.80;;;30.20;28.50;;;;;;5109780;28;20038;-58
2023/08/18 10:38:28;;;;;;;8.80;4.50;;;30.30;29.60;;;;;;5093598;28;20024;-57
2023/08/18 10:40:54;;;;;;;6.18;4.80;;;30.10;30.30;;;;;;5110929;28;20043;-58
2023/08/18 10:43:20;;;;;;;6.78;4.88;;;30.00;31.40;;;;;;5113319;28;20065;-57
2023/08/18 10:46:00;;;;;;;7.15;6.03;;;29.80;31.40;;;;;;5093367;28;20451;-58
2023/08/18 10:48:32;;;;;;;6.63;5.65;;;29.40;31.90;;;;;;5072628;28;20094;-58
2023/08/18 10:50:58;;;;;;;5.68;5.07;;;29.30;31.90;;;;;;5112862;28;20043;-58
2023/08/18 10:53:23;;;;;;;5.97;5.38;;;29.20;34.60;;;;;;5093333;28;20119;-58
2023/08/18 10:55:53;;;;;;;9.75;5.05;;;29.10;33.80;;;;;;5112294;28;20051;-58
2023/08/18 10:58:19;;;;;;;5.10;4.70;;;29.00;33.60;;;;;;5092615;28;20024;-58
2023/08/18 11:00:45;;;;;;;4.82;4.43;;;29.10;33.20;;;;;;5112237;28;20398;-58
2023/08/18 11:03:12;;;;;;;7.07;5.13;;;29.20;32.50;;;;;;5092996;28;20022;-58
2023/08/18 11:05:39;;;;;;;6.13;4.70;;;29.20;33.30;;;;;;5112342;28;20067;-58
2023/08/18 11:08:09;;;;;;;5.38;4.22;;;29.30;32.40;;;;;;5092666;28;20047;-58
2023/08/18 11:10:37;;;;;;;7.40;5.13;;;29.50;33.20;;;;;;5078226;28;20483;-58
2023/08/18 11:13:03;;;;;;;5.35;4.65;;;29.50;34.00;;;;;;5112867;28;20023;-58
2023/08/18 11:15:29;;;;;;;5.95;5.38;;;29.50;33.90;;;;;;5085383;28;20506;-58
2023/08/18 11:17:55;;;;;;;6.22;4.93;;;29.40;32.70;;;;;;5112030;28;20040;-58
2023/08/18 11:20:21;;;;;;;6.68;5.50;;;29.40;33.10;;;;;;5092769;28;20032;-57
2023/08/18 11:22:51;;;;;;;5.47;4.97;;;29.30;32.80;;;;;;5111802;28;20046;-58
2023/08/18 11:25:19;;;;;;;5.68;4.85;;;29.20;34.00;;;;;;5092163;28;20377;-58
2023/08/18 11:27:45;;;;;;;5.75;5.15;;;29.20;33.00;;;;;;5112223;28;20028;-58
2023/08/18 11:30:14;;;;;;;6.82;5.38;;;29.20;34.00;;;;;;5095483;28;20391;-58
2023/08/18 11:32:41;;;;;;;5.03;4.63;;;29.10;34.50;;;;;;5112343;28;20434;-58
2023/08/18 11:35:11;;;;;;;7.70;5.35;;;29.20;34.30;;;;;;5092403;28;20404;-58
2023/08/18 11:37:55;;;;;;;5.13;4.68;;;29.50;34.20;;;;;;5112129;28;20023;-58
2023/08/18 11:40:23;;;;;;;6.00;5.45;;;29.60;33.80;;;;;;5073603;28;20028;-58
2023/08/18 11:42:51;;;;;;;7.28;4.88;;;29.60;33.70;;;;;;5112257;28;20020;-58
2023/08/18 11:45:23;;;;;;;5.57;5.07;;;29.40;33.30;;;;;;5090850;28;20028;-58
2023/08/18 11:48:00;;;;;;;6.00;4.47;;;29.50;33.90;;;;;;5070934;28;20040;-58
2023/08/18 11:50:33;;;;;;;5.70;5.20;;;29.60;34.30;;;;;;5111183;28;20031;-59
2023/08/18 11:53:00;;;;;;;6.95;4.85;;;29.70;33.80;;;;;;5091996;28;20028;-58
2023/08/18 11:55:44;;;;;;;5.30;4.90;;;29.70;33.20;;;;;;5111190;28;20024;-57
2023/08/18 11:58:13;;;;;;;7.07;4.95;;;29.90;33.80;;;;;;5069968;28;20032;-58
2023/08/18 12:00:39;;;;;;;5.10;4.50;;;30.00;34.20;;;;;;5111207;28;20034;-58
2023/08/18 12:03:07;;;;;;;6.45;5.53;;;30.10;34.10;;;;;;5091755;28;20028;-58
2023/08/18 12:05:37;;;;;;;5.97;5.47;;;30.00;33.60;;;;;;5111274;28;20114;-58
2023/08/18 12:08:08;;;;;;;5.97;5.40;;;29.90;34.20;;;;;;5071228;28;20086;-58
2023/08/18 12:10:34;;;;;;;5.88;5.28;;;30.00;34.00;;;;;;5077016;28;20735;-57
2023/08/18 12:13:00;;;;;;;8.20;5.93;;;29.90;34.60;;;;;;5111635;28;20028;-58
2023/08/18 12:15:26;;;;;;;6.18;5.68;;;29.70;36.10;;;;;;5084068;28;20714;-57
2023/08/18 12:17:52;;;;;;;6.47;5.32;;;29.80;34.60;;;;;;5110865;28;20048;-58
2023/08/18 12:20:18;;;;;;;8.75;5.93;;;29.70;35.30;;;;;;5091473;28;20111;-58
2023/08/18 12:22:46;;;;;;;7.47;5.90;;;29.80;35.40;;;;;;5110648;28;20030;-58
2023/08/18 12:25:12;;;;;;;6.38;5.68;;;29.70;35.40;;;;;;5091436;28;20043;-58
2023/08/18 12:27:37;;;;;;;7.70;5.70;;;29.70;35.50;;;;;;5110469;28;20036;-58
2023/08/18 12:30:03;;;;;;;6.40;5.70;;;29.70;36.20;;;;;;5093195;28;20461;-58
2023/08/18 12:32:30;;;;;;;6.60;5.30;;;29.70;35.30;;;;;;5111121;28;20031;-57
2023/08/18 12:34:57;;;;;;;6.50;5.88;;;29.70;34.90;;;;;;5091289;28;20031;-58
2023/08/18 12:37:22;;;;;;;10.60;7.15;;;29.60;35.30;;;;;;5110457;28;20027;-57
2023/08/18 12:39:49;;;;;;;7.03;6.32;;;29.60;34.90;;;;;;5091163;28;20024;-58
2023/08/18 12:42:14;;;;;;;10.63;6.13;;;29.60;34.30;;;;;;5090518;28;20032;-58
2023/08/18 12:44:40;;;;;;;8.43;6.32;;;29.60;34.50;;;;;;5110161;28;20522;-58
2023/08/18 12:47:07;;;;;;;7.65;5.70;;;29.60;34.50;;;;;;5091037;28;20090;-58
2023/08/18 12:49:32;;;;;;;6.80;6.05;;;29.70;34.50;;;;;;5110194;28;20028;-58